Time;durP1;ratioP1;P1;durP2;ratioP2;P2;SDS_P1;SDS_P2;PMS_P1;PMS_P2;Temp;Humidity;BMP_temperature;BMP_pressure;BME280_temperature;BME280_humidity;BME280_pressure;Samples;Min_cycle;Max_cycle;Signal;HPM_P1;HPM_P2
2022/04/26 03:38:09;;;;;;;30.90;26.45;;;11.20;99.90;;;11.04;100.00;100132.28;4972801;28;20045;-79
2022/04/26 03:40:36;;;;;;;33.67;29.08;;;11.80;99.90;;;11.03;100.00;100132.31;4972699;28;20140;-80
2022/04/26 03:43:03;;;;;;;36.00;30.55;;;11.90;99.90;;;11.05;100.00;100127.84;5000429;28;20053;-80
2022/04/26 03:45:30;;;;;;;31.95;28.55;;;11.20;99.90;;;11.09;100.00;100126.00;5004887;28;20034;-79
2022/04/26 03:47:57;;;;;;;34.90;30.35;;;12.70;99.90;;;11.12;100.00;100129.41;4991573;28;20038;-79
2022/04/26 03:50:24;;;;;;;32.75;28.25;;;11.20;99.90;;;11.10;100.00;100122.47;4973940;28;20133;-80
2022/04/26 03:52:52;;;;;;;30.63;27.33;;;12.10;99.90;;;11.07;100.00;100113.75;4973722;28;20046;-81
2022/04/26 03:55:20;;;;;;;29.35;25.40;;;11.20;99.90;;;11.10;100.00;100127.72;4990952;28;20458;-79
2022/04/26 03:57:47;;;;;;;29.55;25.67;;;11.20;99.90;;;11.10;100.00;100127.72;4974142;28;20160;-80
2022/04/26 04:00:16;;;;;;;28.63;25.63;;;12.20;99.90;;;11.14;100.00;100132.88;4973064;28;20097;-78
2022/04/26 04:02:45;;;;;;;30.00;26.35;;;11.20;99.90;;;11.15;100.00;100126.69;4972943;28;20460;-80
2022/04/26 04:05:13;;;;;;;28.85;25.23;;;11.20;99.90;;;11.16;100.00;100122.25;4974363;28;20050;-80
2022/04/26 04:07:40;;;;;;;32.45;27.77;;;11.20;99.90;;;11.15;100.00;100128.44;4977270;28;20054;-80
2022/04/26 04:10:07;;;;;;;28.70;25.60;;;11.20;99.90;;;11.16;100.00;100130.16;4993490;28;20146;-79
2022/04/26 04:12:35;;;;;;;32.00;28.35;;;11.20;99.90;;;11.11;100.00;100132.09;4977792;28;20088;-79
2022/04/26 04:15:02;;;;;;;31.80;28.00;;;11.50;99.90;;;11.17;100.00;100132.75;4994073;28;20097;-80
2022/04/26 04:17:29;;;;;;;30.73;27.45;;;11.20;99.90;;;11.09;100.00;100136.53;4995037;28;20149;-82
2022/04/26 04:19:56;;;;;;;33.05;29.42;;;12.30;99.90;;;11.13;100.00;100140.78;4978083;28;20043;-79
2022/04/26 04:22:23;;;;;;;31.48;27.35;;;11.20;99.90;;;11.13;100.00;100140.78;5011293;28;20065;-81
2022/04/26 04:24:50;;;;;;;31.58;28.17;;;11.90;99.90;;;11.05;100.00;100134.00;4994453;28;20054;-80
2022/04/26 04:27:17;;;;;;;31.27;27.85;;;12.70;99.90;;;11.12;100.00;100141.69;4994652;28;20054;-79
2022/04/26 04:29:44;;;;;;;29.23;26.13;;;12.20;99.90;;;11.10;100.00;100143.53;4994225;28;20148;-79
2022/04/26 04:32:12;;;;;;;29.00;26.02;;;12.90;99.90;;;11.12;100.00;100152.25;4993263;28;20088;-80
2022/04/26 04:34:39;;;;;;;29.67;26.48;;;11.20;99.90;;;11.15;100.00;100149.50;4977793;28;20145;-80
2022/04/26 04:37:08;;;;;;;19.95;17.85;;;11.20;99.90;;;10.99;100.00;100154.38;4994062;28;20122;-80
2022/04/26 04:39:35;;;;;;;20.70;18.60;;;11.20;99.90;;;10.91;100.00;100144.06;4993674;28;20805;-80
2022/04/26 04:42:04;;;;;;;18.65;16.65;;;13.30;99.90;;;11.00;100.00;100153.47;5009427;28;20038;-80
2022/04/26 04:44:31;;;;;;;18.83;16.02;;;11.20;99.90;;;11.01;100.00;100149.94;4993767;28;20050;-79
2022/04/26 04:47:00;;;;;;;14.93;13.43;;;11.10;99.90;;;10.96;100.00;100152.69;5009879;28;20555;-80
2022/04/26 04:49:27;;;;;;;17.80;15.52;;;11.20;99.90;;;11.01;100.00;100152.56;4993481;28;20038;-79
2022/04/26 04:51:54;;;;;;;18.05;16.15;;;11.20;99.90;;;11.03;100.00;100153.38;5009421;28;20065;-80
2022/04/26 04:54:21;;;;;;;19.70;17.45;;;12.20;99.90;;;11.02;100.00;100163.06;4995118;28;20049;-80
2022/04/26 04:56:48;;;;;;;18.65;16.08;;;11.10;99.90;;;10.96;100.00;100170.28;4993926;28;20053;-79
2022/04/26 04:59:20;;;;;;;20.05;17.63;;;11.10;99.90;;;10.97;100.00;100172.84;4993433;28;20057;-79
2022/04/26 05:01:47;;;;;;;19.00;17.00;;;11.10;99.90;;;10.95;100.00;100174.66;5009835;28;20476;-80
2022/04/26 05:04:15;;;;;;;22.58;20.08;;;11.10;99.90;;;10.97;100.00;100180.75;4993525;28;20157;-79
2022/04/26 05:06:42;;;;;;;25.15;21.33;;;12.90;99.90;;;10.94;100.00;100174.72;4993570;28;20118;-79
2022/04/26 05:09:09;;;;;;;23.58;20.95;;;11.60;99.90;;;10.94;100.00;100172.94;4977450;28;20115;-80
2022/04/26 05:11:37;;;;;;;23.17;20.70;;;12.10;99.90;;;11.03;100.00;100185.84;4994084;28;20054;-80
2022/04/26 05:14:04;;;;;;;23.23;20.58;;;12.90;99.90;;;11.13;100.00;100182.91;5009777;28;20046;-81
2022/04/26 05:16:31;;;;;;;27.15;22.70;;;11.20;99.90;;;11.14;100.00;100179.38;4992985;28;20054;-80
2022/04/26 05:18:58;;;;;;;29.52;26.13;;;11.70;99.90;;;11.10;100.00;100186.53;4990699;28;20121;-80
2022/04/26 05:21:25;;;;;;;29.05;25.73;;;11.20;99.90;;;11.20;100.00;100184.50;4992501;28;20137;-80
2022/04/26 05:26:38;;;;;;;29.98;25.42;;;11.30;99.90;;;11.14;100.00;100195.19;4993352;28;20491;-80
2022/04/26 05:29:06;;;;;;;28.65;25.63;;;11.30;99.90;;;11.05;100.00;100188.41;4961016;28;20158;-80
2022/04/26 05:31:33;;;;;;;28.60;24.75;;;11.30;99.90;;;11.20;100.00;100193.22;4977981;28;20057;-79
2022/04/26 05:34:00;;;;;;;29.45;26.30;;;12.10;99.90;;;11.18;100.00;100181.88;4992688;28;20551;-79
2022/04/26 05:36:33;;;;;;;30.23;26.92;;;11.30;99.90;;;11.32;100.00;100191.16;4993210;28;20061;-81
2022/04/26 05:39:01;;;;;;;30.88;27.58;;;12.50;99.90;;;11.29;100.00;100186.81;4981081;28;20038;-80
2022/04/26 05:41:28;;;;;;;31.15;26.85;;;12.70;99.90;;;11.28;100.00;100185.09;4994429;28;20101;-80
2022/04/26 05:43:56;;;;;;;31.65;27.52;;;11.40;99.90;;;11.14;100.00;100195.19;5012216;28;20051;-79
2022/04/26 05:46:23;;;;;;;28.77;25.60;;;12.50;99.90;;;11.13;100.00;100204.00;4980617;28;20054;-79
2022/04/26 05:48:50;;;;;;;28.33;25.10;;;11.30;99.90;;;11.14;100.00;100201.31;5002818;28;20047;-80
2022/04/26 05:51:17;;;;;;;33.30;27.95;;;11.30;99.90;;;11.15;100.00;100205.69;4980232;28;20050;-79
2022/04/26 05:53:44;;;;;;;32.65;28.08;;;11.40;99.90;;;11.11;100.00;100211.06;4980694;28;20088;-77
2022/04/26 05:56:12;;;;;;;34.65;29.52;;;11.30;99.90;;;11.04;100.00;100207.75;4996781;28;20050;-79
2022/04/26 05:58:39;;;;;;;34.33;30.50;;;12.50;99.90;;;11.11;100.00;100197.91;5014527;28;20050;-79
2022/04/26 06:01:06;;;;;;;37.25;31.23;;;11.30;99.90;;;11.13;100.00;100201.34;5010627;28;20373;-79
2022/04/26 06:03:34;;;;;;;31.00;27.70;;;11.30;99.90;;;11.07;100.00;100200.63;4997669;28;20145;-81
2022/04/26 06:06:01;;;;;;;35.47;29.65;;;11.20;99.90;;;10.99;100.00;100197.34;4980541;28;20523;-79
2022/04/26 06:08:28;;;;;;;33.63;27.80;;;11.20;99.90;;;10.99;100.00;100205.25;4980645;28;20080;-80
2022/04/26 06:10:55;;;;;;;37.58;29.63;;;11.20;99.90;;;11.00;100.00;100187.69;4980746;28;20077;-79
2022/04/26 06:13:23;;;;;;;36.83;29.85;;;11.20;99.90;;;11.06;100.00;100192.78;4979943;28;20042;-79
2022/04/26 06:15:50;;;;;;;33.75;29.20;;;11.20;99.90;;;11.13;100.00;100194.34;4980532;28;20054;-79
2022/04/26 06:18:17;;;;;;;32.58;28.48;;;11.10;99.90;;;11.05;100.00;100191.94;4997773;28;20053;-79
2022/04/26 06:20:44;;;;;;;36.97;31.67;;;11.90;99.90;;;10.89;100.00;100188.84;4997287;28;20101;-79
2022/04/26 06:23:11;;;;;;;33.42;28.08;;;11.20;99.90;;;10.86;100.00;100190.72;4996618;28;20050;-75
2022/04/26 06:25:39;;;;;;;34.08;28.38;;;12.10;99.90;;;10.93;100.00;100197.53;5005787;28;20038;-79
2022/04/26 06:28:07;;;;;;;36.85;30.25;;;11.10;99.90;;;10.91;100.00;100204.63;4989428;28;20046;-79
2022/04/26 06:30:37;;;;;;;36.25;29.85;;;11.10;99.90;;;11.01;100.00;100206.09;4973621;28;20078;-78
2022/04/26 06:33:06;;;;;;;39.00;30.38;;;11.40;99.90;;;11.10;100.00;100206.72;4993444;28;20066;-78
2022/04/26 06:35:37;;;;;;;37.40;30.33;;;11.10;99.90;;;10.90;100.00;100209.00;4976091;28;20062;-78
2022/04/26 06:38:06;;;;;;;33.70;29.17;;;11.20;99.90;;;11.12;100.00;100213.69;4977411;28;20066;-78
2022/04/26 06:40:33;;;;;;;32.58;29.00;;;11.30;99.90;;;11.21;100.00;100218.66;4993700;28;20435;-77
2022/04/26 06:43:00;;;;;;;31.80;28.30;;;11.30;99.90;;;11.31;100.00;100221.03;4994379;28;20042;-79
2022/04/26 06:45:27;;;;;;;35.38;28.65;;;11.40;99.90;;;11.33;100.00;100224.47;4994465;28;20450;-78
2022/04/26 06:47:54;;;;;;;35.33;29.15;;;11.50;99.90;;;11.37;100.00;100217.34;4977634;28;20038;-79
2022/04/26 06:50:22;;;;;;;34.78;29.33;;;11.50;99.90;;;11.59;100.00;100222.84;4995336;28;20081;-78
2022/04/26 06:52:49;;;;;;;36.03;31.27;;;11.50;99.90;;;11.47;100.00;100221.44;4992898;28;20047;-78
2022/04/26 06:55:16;;;;;;;38.10;32.45;;;11.60;99.90;;;11.53;100.00;100220.38;5007237;28;20711;-78
2022/04/26 06:57:43;;;;;;;44.28;35.30;;;11.60;99.90;;;11.51;100.00;100222.19;4992109;28;20451;-79
2022/04/26 07:00:11;;;;;;;42.47;34.90;;;11.70;99.90;;;11.45;100.00;100220.63;5014496;28;20129;-79
2022/04/26 07:02:38;;;;;;;43.47;34.33;;;11.70;99.90;;;11.55;100.00;100229.97;5012476;28;20049;-78
2022/04/26 07:05:07;;;;;;;41.72;34.85;;;11.80;99.90;;;11.40;100.00;100225.16;5003218;28;20042;-77
2022/04/26 07:07:34;;;;;;;41.42;34.50;;;11.70;99.90;;;11.39;100.00;100229.56;4980362;28;20053;-79
2022/04/26 07:10:01;;;;;;;41.90;36.03;;;11.70;99.90;;;11.53;100.00;100228.28;4996245;28;20080;-77
2022/04/26 07:12:28;;;;;;;43.97;35.97;;;11.70;99.90;;;11.51;100.00;100230.09;4997274;28;20038;-78
2022/04/26 07:14:55;;;;;;;40.00;34.35;;;11.70;99.90;;;11.67;100.00;100233.16;4996984;28;20046;-78
2022/04/26 07:17:22;;;;;;;48.85;38.15;;;11.80;99.90;;;11.71;100.00;100229.50;4980751;28;20114;-78
2022/04/26 07:19:50;;;;;;;41.33;34.80;;;11.80;99.90;;;11.91;100.00;100242.06;4997686;28;20053;-77
2022/04/26 07:22:27;;;;;;;37.05;30.52;;;11.90;99.90;;;12.00;100.00;100239.13;4993093;28;20093;-78
2022/04/26 07:24:54;;;;;;;37.28;31.77;;;12.10;99.90;;;12.16;100.00;100233.38;4992796;28;20050;-79
2022/04/26 07:27:22;;;;;;;43.70;35.20;;;12.20;99.90;;;12.36;100.00;100232.72;4977304;28;20053;-79
2022/04/26 07:29:50;;;;;;;39.83;34.35;;;12.70;99.90;;;12.44;100.00;100232.47;4994085;28;20077;-78
2022/04/26 07:32:18;;;;;;;37.22;33.00;;;12.40;99.90;;;12.56;100.00;100236.44;4992917;28;20392;-79
2022/04/26 07:34:45;;;;;;;38.67;33.30;;;12.50;99.90;;;12.58;100.00;100234.66;4993013;28;20074;-78
2022/04/26 07:37:12;;;;;;;36.63;32.65;;;12.60;99.90;;;12.67;100.00;100241.38;4994652;28;20092;-78
2022/04/26 07:39:41;;;;;;;34.47;30.80;;;12.70;99.90;;;12.70;100.00;100238.63;4992506;28;20046;-79
2022/04/26 07:42:09;;;;;;;31.45;28.05;;;12.80;99.90;;;12.56;100.00;100242.59;4992437;28;20108;-79
2022/04/26 07:44:39;;;;;;;33.97;30.23;;;12.80;99.90;;;12.58;100.00;100235.50;4993958;28;20046;-79
2022/04/26 07:47:06;;;;;;;33.03;27.38;;;13.00;99.90;;;12.60;100.00;100238.94;5009277;28;20057;-79
2022/04/26 07:49:35;;;;;;;31.02;27.10;;;12.70;99.90;;;12.55;100.00;100240.00;4992815;28;20046;-79
2022/04/26 07:52:04;;;;;;;33.35;29.65;;;12.70;99.90;;;12.55;100.00;100237.38;4994079;28;20048;-79
2022/04/26 07:54:31;;;;;;;33.85;29.67;;;12.70;99.90;;;12.58;100.00;100242.56;4992676;28;20427;-78
2022/04/26 07:56:58;;;;;;;35.30;30.33;;;12.70;99.90;;;12.61;100.00;100245.09;4987736;28;20047;-77
2022/04/26 07:59:28;;;;;;;37.20;32.53;;;12.70;99.90;;;12.70;100.00;100241.28;4988285;28;20422;-78
2022/04/26 08:01:57;;;;;;;39.75;34.22;;;12.80;99.90;;;12.81;100.00;100243.53;4972568;28;20047;-78
2022/04/26 08:04:24;;;;;;;38.20;33.75;;;12.80;99.90;;;12.91;100.00;100243.13;4972063;28;20697;-77
2022/04/26 08:06:51;;;;;;;36.53;32.00;;;12.90;99.90;;;12.93;100.00;100239.59;4971455;28;20053;-77
2022/04/26 08:09:18;;;;;;;36.65;30.98;;;12.90;99.90;;;12.88;100.00;100247.69;4988802;28;20065;-77
2022/04/26 08:11:46;;;;;;;38.45;33.13;;;13.00;99.90;;;12.88;100.00;100248.53;4989147;28;20487;-78
2022/04/26 08:14:14;;;;;;;36.10;32.03;;;13.00;99.90;;;12.89;100.00;100244.13;4971858;28;20120;-78
2022/04/26 08:16:41;;;;;;;36.67;32.15;;;13.00;99.90;;;12.95;100.00;100248.31;4987685;28;20043;-77
2022/04/26 08:19:11;;;;;;;35.50;31.60;;;13.10;99.90;;;13.01;100.00;100250.75;4987282;28;20389;-78
2022/04/26 08:21:39;;;;;;;39.40;33.28;;;13.20;99.90;;;12.97;100.00;100247.34;4987548;28;20043;-77
2022/04/26 08:29:38;;;;;;;39.15;33.47;;;13.10;99.90;;;12.96;100.00;100261.47;4988172;28;20077;-77
2022/04/26 08:32:06;;;;;;;40.38;29.83;;;13.20;99.90;;;13.08;100.00;100259.31;4987556;28;20046;-78
2022/04/26 08:34:33;;;;;;;34.35;30.65;;;13.20;99.90;;;13.19;100.00;100268.56;4988525;28;20133;-78
2022/04/26 08:37:00;;;;;;;34.78;30.77;;;13.20;99.90;;;13.25;100.00;100259.56;5004799;28;20054;-79
2022/04/26 08:39:27;;;;;;;32.70;28.48;;;13.30;99.90;;;13.40;100.00;100268.69;4971738;28;20050;-78
2022/04/26 08:41:59;;;;;;;30.83;24.63;;;13.40;99.90;;;13.36;100.00;100268.88;4972070;28;20046;-79
2022/04/26 08:44:27;;;;;;;28.20;25.20;;;13.40;99.90;;;13.56;100.00;100261.06;4971773;28;20042;-77
2022/04/26 08:52:44;;;;;;;32.00;27.52;;;13.70;99.60;;;13.67;100.00;100281.81;4975908;28;20054;-77
2022/04/26 08:55:11;;;;;;;29.80;26.55;;;13.70;99.90;;;13.97;100.00;100284.19;4993900;28;20054;-78
2022/04/26 08:57:38;;;;;;;25.48;22.77;;;13.90;99.90;;;14.03;100.00;100281.28;4975806;28;20105;-77
2022/04/26 09:00:08;;;;;;;26.83;23.13;;;14.00;99.90;;;14.12;100.00;100284.50;4991193;28;20133;-77
2022/04/26 09:02:39;;;;;;;23.15;20.63;;;14.10;99.90;;;14.28;100.00;100282.94;4976050;28;20125;-77
2022/04/26 09:05:14;;;;;;;21.52;19.40;;;14.20;99.90;;;14.45;100.00;100299.91;4992066;28;20035;-76
2022/04/26 09:07:47;;;;;;;22.67;20.38;;;14.40;99.90;;;14.48;100.00;100291.00;5006504;28;20030;-81
2022/04/26 09:10:17;;;;;;;22.08;19.73;;;14.50;99.90;;;14.40;100.00;100283.38;5007699;28;20050;-80
2022/04/26 09:13:11;;;;;;;22.63;20.30;;;14.50;99.50;;;14.39;100.00;100284.31;4964253;28;20085;-80
2022/04/26 09:15:44;;;;;;;24.90;21.95;;;14.50;99.20;;;14.11;100.00;100285.41;4980249;28;20082;-81
2022/04/26 09:18:24;;;;;;;24.17;21.77;;;14.50;98.80;;;13.93;100.00;100293.16;4993107;28;20140;-77
2022/04/26 09:20:53;;;;;;;24.98;22.27;;;14.30;98.70;;;13.74;100.00;100298.31;4989872;28;20038;-77
2022/04/26 09:23:29;;;;;;;25.42;22.70;;;14.20;98.80;;;13.56;100.00;100303.38;4975905;28;20050;-77
2022/04/26 09:26:15;;;;;;;23.92;21.40;;;14.00;99.20;;;13.60;100.00;100309.41;4992092;28;20121;-77
2022/04/26 09:28:45;;;;;;;21.60;19.40;;;13.90;99.90;;;13.09;100.00;100314.72;4993180;28;20038;-77
2022/04/26 09:31:22;;;;;;;22.73;20.15;;;13.70;99.90;;;13.07;100.00;100329.75;4974230;28;20122;-76
2022/04/26 09:33:57;;;;;;;17.80;16.00;;;13.50;99.90;;;12.80;100.00;100329.81;4989732;28;20122;-77
2022/04/26 09:36:29;;;;;;;18.85;15.48;;;13.40;99.90;;;12.47;100.00;100328.22;4988363;28;20054;-75
2022/04/26 09:39:00;;;;;;;18.52;16.00;;;13.30;99.90;;;12.38;100.00;100349.63;4990462;28;20113;-76
2022/04/26 09:41:29;;;;;;;20.85;18.60;;;12.80;99.90;;;12.11;100.00;100357.50;4974552;28;20046;-75
2022/04/26 09:44:04;;;;;;;49.55;45.10;;;12.70;99.90;;;12.11;100.00;100364.53;4990544;28;20105;-75
2022/04/26 09:46:40;;;;;;;18.45;16.65;;;12.40;99.90;;;11.98;100.00;100370.16;4986701;28;20046;-75
2022/04/26 09:49:10;;;;;;;16.40;12.65;;;12.60;99.90;;;12.03;100.00;100365.66;4993079;28;20077;-75
2022/04/26 09:51:38;;;;;;;17.10;13.57;;;12.20;99.90;;;12.03;100.00;100365.66;4993773;28;20050;-75
2022/04/26 09:54:06;;;;;;;17.00;13.27;;;12.20;99.90;;;12.09;100.00;100361.94;4978103;28;20055;-75
2022/04/26 09:56:35;;;;;;;15.82;14.13;;;12.20;99.90;;;12.03;100.00;100351.59;4993352;28;20104;-75
2022/04/26 09:59:04;;;;;;;13.52;11.88;;;12.20;99.90;;;12.01;100.00;100348.09;4993425;28;20137;-75
2022/04/26 10:01:42;;;;;;;13.65;12.13;;;12.60;99.90;;;12.05;100.00;100355.03;4977372;28;20303;-75
2022/04/26 10:04:17;;;;;;;13.05;11.63;;;12.10;99.90;;;12.04;100.00;100353.31;4985843;28;20125;-75
2022/04/26 10:06:50;;;;;;;13.48;12.00;;;12.10;99.90;;;11.97;100.00;100349.13;4988936;28;20062;-75
2022/04/26 10:09:18;;;;;;;11.75;10.57;;;12.70;99.90;;;11.96;100.00;100355.31;4974532;28;20483;-75
2022/04/26 10:11:45;;;;;;;11.77;10.65;;;12.10;99.90;;;12.02;100.00;100350.75;4989280;28;20566;-74
2022/04/26 10:14:13;;;;;;;12.60;11.30;;;13.10;99.90;;;12.05;100.00;100352.41;4989404;28;20117;-77
2022/04/26 10:16:40;;;;;;;10.80;9.80;;;12.20;99.90;;;11.99;100.00;100360.47;4957353;28;20136;-77
2022/04/26 10:19:09;;;;;;;12.32;11.02;;;13.50;99.90;;;11.94;100.00;100355.34;4989447;28;20042;-75
2022/04/26 10:21:39;;;;;;;17.40;13.13;;;12.40;99.90;;;11.92;100.00;100358.00;4974079;28;20050;-77
2022/04/26 10:24:25;;;;;;;17.02;12.63;;;12.20;99.90;;;11.97;100.00;100360.50;4989983;28;20054;-76
2022/04/26 10:26:52;;;;;;;18.85;15.77;;;12.20;99.90;;;11.96;100.00;100357.94;4989913;28;20046;-77
2022/04/26 10:29:25;;;;;;;13.20;10.90;;;12.30;99.90;;;12.09;100.00;100364.56;4989281;28;20145;-75
2022/04/26 10:32:01;;;;;;;15.13;11.35;;;12.20;99.90;;;12.20;100.00;100365.13;4990372;28;20065;-75
2022/04/26 10:34:32;;;;;;;10.73;9.63;;;12.20;99.90;;;12.36;100.00;100375.19;4973752;28;20462;-77
2022/04/26 10:37:08;;;;;;;11.23;9.98;;;12.40;99.90;;;12.37;100.00;100381.34;4990255;28;20070;-77
2022/04/26 10:39:40;;;;;;;11.45;9.30;;;12.80;99.90;;;12.44;100.00;100378.47;5005280;28;20062;-77
2022/04/26 10:42:17;;;;;;;10.90;9.68;;;12.50;99.90;;;12.58;100.00;100375.38;5008105;28;20130;-77
2022/04/26 10:44:46;;;;;;;9.85;8.85;;;12.60;99.90;;;12.65;100.00;100370.75;5007446;28;20042;-76
2022/04/26 10:47:18;;;;;;;8.63;7.55;;;12.80;99.90;;;12.99;100.00;100367.00;5005451;28;20142;-77
2022/04/26 10:49:47;;;;;;;9.00;7.78;;;14.10;99.90;;;13.31;100.00;100382.66;4987824;28;20491;-77
2022/04/26 10:52:40;;;;;;;8.35;7.55;;;13.10;99.90;;;13.58;100.00;100378.19;4972291;28;20620;-76
2022/04/26 10:55:11;;;;;;;8.30;6.60;;;13.60;99.90;;;13.85;100.00;100383.38;4989149;28;20066;-77
2022/04/26 10:57:41;;;;;;;8.68;6.88;;;13.50;99.90;;;13.96;100.00;100395.31;4973756;28;20054;-78
2022/04/26 11:00:27;;;;;;;8.32;6.93;;;13.80;99.90;;;13.61;100.00;100401.88;4990685;28;20054;-78
2022/04/26 11:03:05;;;;;;;7.88;6.45;;;12.40;97.80;;;13.89;100.00;100405.25;4988346;28;20054;-76
2022/04/26 11:05:33;;;;;;;7.03;6.28;;;13.90;99.20;;;13.90;100.00;100417.59;4990809;28;20062;-76
2022/04/26 11:08:04;;;;;;;7.47;6.57;;;13.90;98.90;;;13.92;100.00;100418.41;5004885;28;20135;-76
2022/04/26 11:11:00;;;;;;;7.93;7.15;;;14.00;99.20;;;13.77;100.00;100418.97;5003358;28;20462;-76
2022/04/26 11:13:33;;;;;;;7.03;6.25;;;14.00;98.90;;;13.73;100.00;100421.69;5001776;28;20070;-76
2022/04/26 11:16:13;;;;;;;8.43;6.50;;;13.90;99.00;;;13.46;100.00;100426.19;5002888;28;20178;-76
2022/04/26 11:18:42;;;;;;;8.30;6.53;;;13.80;98.80;;;13.38;100.00;100429.06;4988123;28;20450;-76
2022/04/26 11:21:12;;;;;;;7.27;6.10;;;13.70;99.20;;;13.21;100.00;100434.97;4988089;28;20503;-76
2022/04/26 11:29:26;;;;;;;8.98;6.75;;;13.20;99.80;;;12.62;100.00;100442.97;4946858;28;20122;-76
2022/04/26 11:31:55;;;;;;;7.13;6.38;;;13.10;99.90;;;12.65;100.00;100439.41;5000626;28;20058;-77
2022/04/26 11:34:46;;;;;;;7.22;5.82;;;13.00;99.90;;;12.48;100.00;100443.44;5019971;28;20043;-77
2022/04/26 11:37:14;;;;;;;6.97;5.25;;;12.90;99.90;;;12.33;100.00;100441.25;5018569;28;20057;-78
2022/04/26 11:39:42;;;;;;;6.20;5.05;;;12.70;99.90;;;12.32;100.00;100444.81;5002007;28;20058;-76
2022/04/26 11:42:11;;;;;;;6.13;4.32;;;12.70;99.90;;;12.34;100.00;100442.97;4999469;28;20458;-78
2022/04/26 11:44:56;;;;;;;5.07;4.50;;;12.60;99.90;;;12.41;100.00;100446.31;5000582;28;20117;-78
2022/04/26 11:47:48;;;;;;;5.82;4.53;;;14.00;99.90;;;12.47;100.00;100449.63;4991344;28;20153;-77
2022/04/26 11:50:27;;;;;;;5.47;4.85;;;12.70;99.60;;;12.39;100.00;100461.31;5000383;28;20084;-76
2022/04/26 11:53:02;;;;;;;7.38;6.45;;;12.70;99.90;;;12.33;100.00;100451.81;4999258;28;20450;-77
2022/04/26 11:55:39;;;;;;;7.38;5.80;;;12.70;99.90;;;12.29;100.00;100463.38;4997253;28;20066;-77
2022/04/26 11:58:19;;;;;;;6.90;6.20;;;12.60;99.90;;;12.32;100.00;100461.47;4981895;28;20057;-77
2022/04/26 12:00:56;;;;;;;7.38;6.63;;;12.60;99.90;;;12.37;100.00;100474.53;4998070;28;20104;-78
2022/04/26 12:03:29;;;;;;;9.32;5.88;;;12.60;99.90;;;12.42;100.00;100470.00;4998614;28;20046;-77
2022/04/26 12:06:05;;;;;;;6.90;6.20;;;12.60;99.90;;;12.45;100.00;100475.19;4998657;28;20073;-77
2022/04/26 12:08:50;;;;;;;6.88;6.10;;;12.60;99.90;;;12.36;100.00;100467.53;4998075;28;20096;-77
2022/04/26 12:11:20;;;;;;;9.90;7.30;;;12.60;99.90;;;12.25;100.00;100465.22;4964586;28;20057;-77
2022/04/26 12:14:08;;;;;;;7.60;6.75;;;12.60;99.90;;;12.23;100.00;100468.81;4996294;28;20054;-76
2022/04/26 12:16:57;;;;;;;11.80;7.70;;;12.70;99.90;;;12.32;100.00;100461.47;5004528;28;20157;-77
2022/04/26 12:19:36;;;;;;;9.25;7.22;;;12.50;99.90;;;12.19;100.00;100468.06;5000275;28;20058;-77
2022/04/26 12:22:05;;;;;;;7.60;6.82;;;12.50;99.90;;;12.26;100.00;100455.56;4999598;28;20046;-77
2022/04/26 12:24:51;;;;;;;7.88;7.07;;;12.50;99.90;;;12.40;100.00;100463.03;4985563;28;20044;-77
2022/04/26 12:27:22;;;;;;;6.43;5.80;;;13.40;99.90;;;12.40;100.00;100450.69;5009773;28;20046;-77
2022/04/26 12:29:51;;;;;;;6.13;5.55;;;12.60;99.90;;;12.68;100.00;100456.94;5002915;28;20046;-78
2022/04/26 12:32:21;;;;;;;7.13;6.43;;;13.70;99.90;;;12.88;100.00;100449.22;5003686;28;20046;-76
2022/04/26 12:34:55;;;;;;;6.85;5.97;;;14.20;99.90;;;12.90;100.00;100452.66;4987257;28;20042;-78
2022/04/26 12:37:26;;;;;;;6.57;5.78;;;13.60;99.90;;;13.03;100.00;100447.00;5002778;28;20050;-76
2022/04/26 12:40:00;;;;;;;5.90;5.30;;;13.10;99.90;;;13.41;100.00;100451.91;4983285;28;20038;-78
2022/04/26 12:42:27;;;;;;;6.05;5.45;;;13.50;99.90;;;13.70;100.00;100453.53;4999977;28;20042;-77
2022/04/26 12:44:56;;;;;;;6.88;6.18;;;13.50;99.90;;;14.40;100.00;100448.31;5001593;28;20098;-78
2022/04/26 12:50:33;;;;;;;5.78;5.28;;;14.40;99.90;;;15.71;100.00;100450.97;4987612;28;20290;-77
2022/04/26 12:53:02;;;;;;;4.97;4.53;;;15.20;99.90;;;16.47;100.00;100447.56;5001993;28;20101;-75
2022/04/26 12:55:43;;;;;;;5.68;4.93;;;15.90;99.30;;;17.10;100.00;100441.00;4976083;28;20046;-77
2022/04/26 12:58:13;;;;;;;5.57;4.75;;;16.50;98.40;;;18.01;100.00;100445.19;5009062;28;20053;-77
2022/04/26 13:00:46;;;;;;;4.97;4.47;;;17.30;98.10;;;18.84;100.00;100428.22;4974385;28;20078;-76
2022/04/26 13:03:18;;;;;;;4.63;4.22;;;18.10;96.00;;;19.27;100.00;100433.72;4976538;28;20047;-79
2022/04/26 13:05:50;;;;;;;4.82;4.43;;;18.80;95.30;;;20.22;84.40;100430.66;4993634;28;20046;-79
2022/04/26 13:08:20;;;;;;;5.03;4.20;;;19.70;93.00;;;20.52;72.17;100440.34;4993457;28;20053;-79
2022/04/26 13:10:48;;;;;;;4.88;3.90;;;20.30;90.70;;;20.15;65.17;100433.81;4975064;28;20081;-78
2022/04/26 13:13:16;;;;;;;4.65;4.22;;;20.50;85.10;;;20.28;77.53;100432.09;4958658;28;20100;-78
2022/04/26 13:15:44;;;;;;;4.65;4.00;;;20.60;89.10;;;19.86;70.98;100440.00;4974699;28;20133;-78
2022/04/26 13:18:15;;;;;;;4.07;3.70;;;20.60;84.50;;;19.80;75.41;100430.56;4974534;28;20050;-79
2022/04/26 13:20:44;;;;;;;4.35;3.95;;;20.40;86.50;;;19.15;75.10;100430.94;4959071;28;20104;-78
2022/04/26 13:23:13;;;;;;;4.88;4.38;;;20.10;85.90;;;18.91;82.63;100434.06;4981636;28;20053;-78
2022/04/26 13:25:42;;;;;;;4.35;3.80;;;19.80;88.80;;;18.55;89.07;100441.41;4990394;28;20543;-78
2022/04/26 13:28:10;;;;;;;4.63;4.05;;;19.40;90.30;;;18.06;82.89;100444.97;4991887;28;20039;-78
2022/04/26 13:30:38;;;;;;;4.63;4.22;;;18.90;88.10;;;17.80;96.22;100433.91;4990768;28;20092;-77
2022/04/26 13:33:07;;;;;;;3.42;3.13;;;18.60;91.70;;;17.77;100.00;100450.91;5008372;28;20590;-77
2022/04/26 13:35:37;;;;;;;4.80;3.97;;;18.40;93.00;;;17.44;100.00;100441.94;5006702;28;20077;-80
2022/04/26 13:38:13;;;;;;;4.43;4.03;;;18.00;93.00;;;17.37;100.00;100445.84;4992006;28;20500;-77
2022/04/26 13:40:42;;;;;;;4.07;3.78;;;17.90;94.20;;;17.27;100.00;100445.47;4973574;28;20798;-77
2022/04/26 13:43:10;;;;;;;4.72;4.20;;;17.70;94.10;;;16.96;100.00;100439.00;4972180;28;20049;-76
2022/04/26 13:45:55;;;;;;;3.92;3.58;;;17.50;94.20;;;16.89;100.00;100444.72;4980922;28;20050;-78
2022/04/26 13:48:22;;;;;;;7.10;4.80;;;17.20;95.10;;;16.73;100.00;100448.97;4987466;28;20039;-76
2022/04/26 13:50:50;;;;;;;4.75;4.15;;;17.10;95.20;;;16.95;100.00;100442.59;5005965;28;20448;-77
2022/04/26 13:53:17;;;;;;;4.63;4.22;;;17.00;95.10;;;16.89;100.00;100442.91;4973983;28;20053;-77
2022/04/26 13:55:44;;;;;;;4.80;4.40;;;17.10;94.70;;;16.49;98.32;100458.97;5008507;28;20042;-77
2022/04/26 13:58:11;;;;;;;3.83;3.45;;;17.00;93.20;;;16.42;100.00;100460.19;4992124;28;20132;-79
2022/04/26 14:00:39;;;;;;;3.78;3.30;;;16.90;93.90;;;16.11;96.47;100469.59;4995168;28;20102;-78
2022/04/26 14:03:06;;;;;;;3.30;2.50;;;16.60;93.00;;;15.67;93.58;100470.59;4961458;28;20415;-78
2022/04/26 14:05:34;;;;;;;2.67;1.90;;;16.40;92.20;;;15.19;97.43;100481.44;4966507;28;20108;-79
2022/04/26 14:08:07;;;;;;;2.30;1.88;;;16.10;92.30;;;14.88;100.00;100470.31;4998164;28;20078;-77
2022/04/26 14:10:34;;;;;;;1.95;1.80;;;15.70;93.30;;;14.75;100.00;100479.69;4990060;28;20486;-78